sensor_id;sensor_type;location;lat;lon;timestamp;temperature;humidity
21508;DHT22;10915;54.352;9.074;2023-01-01T00:00:18;11.80;99.90
21508;DHT22;10915;54.352;9.074;2023-01-01T00:02:43;11.80;99.90
21508;DHT22;10915;54.352;9.074;2023-01-01T00:05:09;11.80;99.90
21508;DHT22;10915;54.352;9.074;2023-01-01T00:07:35;11.70;99.90
21508;DHT22;10915;54.352;9.074;2023-01-01T00:10:00;11.70;99.90
21508;DHT22;10915;54.352;9.074;2023-01-01T00:12:44;11.80;99.90
21508;DHT22;10915;54.352;9.074;2023-01-01T00:15:10;11.70;99.90
21508;DHT22;10915;54.352;9.074;2023-01-01T00:17:36;11.80;99.90
21508;DHT22;10915;54.352;9.074;2023-01-01T00:20:02;11.80;99.90
21508;DHT22;10915;54.352;9.074;2023-01-01T00:22:28;11.80;99.90
21508;DHT22;10915;54.352;9.074;2023-01-01T00:24:54;11.80;99.90
21508;DHT22;10915;54.352;9.074;2023-01-01T00:27:19;11.80;99.90
21508;DHT22;10915;54.352;9.074;2023-01-01T00:29:45;11.80;99.90
21508;DHT22;10915;54.352;9.074;2023-01-01T00:32:11;11.90;99.90
21508;DHT22;10915;54.352;9.074;2023-01-01T00:34:37;11.90;99.90
21508;DHT22;10915;54.352;9.074;2023-01-01T00:37:03;12.00;99.90
21508;DHT22;10915;54.352;9.074;2023-01-01T00:39:28;12.00;99.90
21508;DHT22;10915;54.352;9.074;2023-01-01T00:41:54;12.00;99.90
21508;DHT22;10915;54.352;9.074;2023-01-01T00:44:20;12.00;99.90
21508;DHT22;10915;54.352;9.074;2023-01-01T00:46:45;12.00;99.90
21508;DHT22;10915;54.352;9.074;2023-01-01T00:49:11;12.00;99.90
21508;DHT22;10915;54.352;9.074;2023-01-01T00:51:37;12.00;99.90
21508;DHT22;10915;54.352;9.074;2023-01-01T00:54:02;12.00;99.90
21508;DHT22;10915;54.352;9.074;2023-01-01T00:56:28;12.10;99.90
21508;DHT22;10915;54.352;9.074;2023-01-01T00:58:54;12.10;99.90
21508;DHT22;10915;54.352;9.074;2023-01-01T01:01:19;12.10;99.90
21508;DHT22;10915;54.352;9.074;2023-01-01T01:03:45;12.10;99.90
21508;DHT22;10915;54.352;9.074;2023-01-01T01:06:12;12.10;99.90
21508;DHT22;10915;54.352;9.074;2023-01-01T01:08:41;12.10;99.90
21508;DHT22;10915;54.352;9.074;2023-01-01T01:11:12;12.20;99.90
21508;DHT22;10915;54.352;9.074;2023-01-01T01:13:39;12.20;99.90
21508;DHT22;10915;54.352;9.074;2023-01-01T01:16:26;12.20;99.90
21508;DHT22;10915;54.352;9.074;2023-01-01T01:18:54;12.30;99.90
21508;DHT22;10915;54.352;9.074;2023-01-01T01:21:21;12.30;99.90
21508;DHT22;10915;54.352;9.074;2023-01-01T01:23:47;12.30;99.90
21508;DHT22;10915;54.352;9.074;2023-01-01T01:26:21;12.40;99.90
21508;DHT22;10915;54.352;9.074;2023-01-01T01:28:47;12.40;99.90
21508;DHT22;10915;54.352;9.074;2023-01-01T01:31:13;12.40;99.90
21508;DHT22;10915;54.352;9.074;2023-01-01T01:33:39;12.40;99.90
21508;DHT22;10915;54.352;9.074;2023-01-01T01:36:08;12.50;99.90
21508;DHT22;10915;54.352;9.074;2023-01-01T01:38:33;12.50;99.90
21508;DHT22;10915;54.352;9.074;2023-01-01T01:40:59;12.50;99.90
21508;DHT22;10915;54.352;9.074;2023-01-01T01:46:43;12.50;99.90
21508;DHT22;10915;54.352;9.074;2023-01-01T01:49:15;12.50;99.90
21508;DHT22;10915;54.352;9.074;2023-01-01T01:51:43;12.50;99.90
21508;DHT22;10915;54.352;9.074;2023-01-01T01:54:13;12.60;99.90
21508;DHT22;10915;54.352;9.074;2023-01-01T01:56:56;12.60;99.90
21508;DHT22;10915;54.352;9.074;2023-01-01T01:59:26;12.60;99.90
21508;DHT22;10915;54.352;9.074;2023-01-01T02:01:53;12.60;99.90
21508;DHT22;10915;54.352;9.074;2023-01-01T02:04:19;12.60;99.90
21508;DHT22;10915;54.352;9.074;2023-01-01T02:06:46;12.60;99.90
21508;DHT22;10915;54.352;9.074;2023-01-01T02:09:12;12.50;99.90
21508;DHT22;10915;54.352;9.074;2023-01-01T02:11:38;12.50;99.90
21508;DHT22;10915;54.352;9.074;2023-01-01T02:14:04;12.50;99.90
21508;DHT22;10915;54.352;9.074;2023-01-01T02:16:48;12.40;99.90
21508;DHT22;10915;54.352;9.074;2023-01-01T02:19:47;12.40;99.90
21508;DHT22;10915;54.352;9.074;2023-01-01T02:30:28;12.30;99.90
21508;DHT22;10915;54.352;9.074;2023-01-01T02:33:02;12.40;99.90
21508;DHT22;10915;54.352;9.074;2023-01-01T02:35:47;12.40;99.90
21508;DHT22;10915;54.352;9.074;2023-01-01T02:38:22;12.30;99.90
21508;DHT22;10915;54.352;9.074;2023-01-01T02:40:53;12.30;99.90
21508;DHT22;10915;54.352;9.074;2023-01-01T02:43:19;12.40;99.90
21508;DHT22;10915;54.352;9.074;2023-01-01T02:45:45;12.30;99.90
21508;DHT22;10915;54.352;9.074;2023-01-01T02:48:43;12.30;99.90
21508;DHT22;10915;54.352;9.074;2023-01-01T02:59:12;12.30;99.90
21508;DHT22;10915;54.352;9.074;2023-01-01T03:02:13;12.30;99.90
21508;DHT22;10915;54.352;9.074;2023-01-01T03:05:05;12.30;99.90
21508;DHT22;10915;54.352;9.074;2023-01-01T03:13:26;12.20;99.90
21508;DHT22;10915;54.352;9.074;2023-01-01T03:16:15;12.20;99.90
21508;DHT22;10915;54.352;9.074;2023-01-01T03:19:04;12.20;99.90
21508;DHT22;10915;54.352;9.074;2023-01-01T03:21:42;12.20;99.90
21508;DHT22;10915;54.352;9.074;2023-01-01T03:24:16;12.20;99.90
21508;DHT22;10915;54.352;9.074;2023-01-01T03:26:43;12.20;99.90
21508;DHT22;10915;54.352;9.074;2023-01-01T03:29:12;12.10;99.90
21508;DHT22;10915;54.352;9.074;2023-01-01T03:31:41;12.10;99.90
21508;DHT22;10915;54.352;9.074;2023-01-01T03:34:18;12.00;99.90
21508;DHT22;10915;54.352;9.074;2023-01-01T03:36:51;12.00;99.90
21508;DHT22;10915;54.352;9.074;2023-01-01T03:39:23;11.90;99.90
21508;DHT22;10915;54.352;9.074;2023-01-01T03:42:14;11.90;99.90
21508;DHT22;10915;54.352;9.074;2023-01-01T03:44:51;11.90;99.90
21508;DHT22;10915;54.352;9.074;2023-01-01T03:47:19;11.80;99.90
21508;DHT22;10915;54.352;9.074;2023-01-01T03:49:45;11.80;99.90
21508;DHT22;10915;54.352;9.074;2023-01-01T03:52:20;11.80;99.90
21508;DHT22;10915;54.352;9.074;2023-01-01T03:54:52;11.80;99.90
21508;DHT22;10915;54.352;9.074;2023-01-01T04:00:06;11.70;99.90
21508;DHT22;10915;54.352;9.074;2023-01-01T04:02:37;11.70;99.90
21508;DHT22;10915;54.352;9.074;2023-01-01T04:05:05;11.70;99.90
21508;DHT22;10915;54.352;9.074;2023-01-01T04:07:34;11.70;99.90
21508;DHT22;10915;54.352;9.074;2023-01-01T04:10:01;11.60;99.90
21508;DHT22;10915;54.352;9.074;2023-01-01T04:12:51;11.60;99.90
21508;DHT22;10915;54.352;9.074;2023-01-01T04:15:19;11.70;99.90
21508;DHT22;10915;54.352;9.074;2023-01-01T04:17:44;11.60;99.90
21508;DHT22;10915;54.352;9.074;2023-01-01T04:20:11;11.70;99.90
21508;DHT22;10915;54.352;9.074;2023-01-01T04:22:37;11.70;99.90
21508;DHT22;10915;54.352;9.074;2023-01-01T04:25:04;11.60;99.90
21508;DHT22;10915;54.352;9.074;2023-01-01T04:27:30;11.70;99.90
21508;DHT22;10915;54.352;9.074;2023-01-01T04:29:55;11.60;99.90
21508;DHT22;10915;54.352;9.074;2023-01-01T04:32:21;11.60;99.90
21508;DHT22;10915;54.352;9.074;2023-01-01T04:34:47;11.60;99.90
21508;DHT22;10915;54.352;9.074;2023-01-01T04:37:13;11.60;99.90
21508;DHT22;10915;54.352;9.074;2023-01-01T04:39:39;11.60;99.90
21508;DHT22;10915;54.352;9.074;2023-01-01T04:42:05;11.60;99.90
21508;DHT22;10915;54.352;9.074;2023-01-01T04:44:31;11.60;99.90
21508;DHT22;10915;54.352;9.074;2023-01-01T04:46:57;11.60;99.90
21508;DHT22;10915;54.352;9.074;2023-01-01T04:49:22;11.60;99.90
21508;DHT22;10915;54.352;9.074;2023-01-01T04:51:48;11.60;99.90
21508;DHT22;10915;54.352;9.074;2023-01-01T04:54:14;11.60;99.90
21508;DHT22;10915;54.352;9.074;2023-01-01T04:56:40;11.60;99.90
21508;DHT22;10915;54.352;9.074;2023-01-01T04:59:05;11.60;99.90
21508;DHT22;10915;54.352;9.074;2023-01-01T05:01:31;11.60;99.90
21508;DHT22;10915;54.352;9.074;2023-01-01T05:03:58;11.60;99.90
21508;DHT22;10915;54.352;9.074;2023-01-01T05:06:25;11.60;99.90
21508;DHT22;10915;54.352;9.074;2023-01-01T05:08:52;11.60;99.90
21508;DHT22;10915;54.352;9.074;2023-01-01T05:11:27;11.60;99.90
21508;DHT22;10915;54.352;9.074;2023-01-01T05:13:55;11.60;99.90
21508;DHT22;10915;54.352;9.074;2023-01-01T05:16:24;11.60;99.90
21508;DHT22;10915;54.352;9.074;2023-01-01T05:18:50;11.60;99.90
21508;DHT22;10915;54.352;9.074;2023-01-01T05:21:19;11.60;99.90
21508;DHT22;10915;54.352;9.074;2023-01-01T05:23:45;11.70;99.90
21508;DHT22;10915;54.352;9.074;2023-01-01T05:26:13;11.70;99.90
21508;DHT22;10915;54.352;9.074;2023-01-01T05:28:39;11.70;99.90
21508;DHT22;10915;54.352;9.074;2023-01-01T05:31:22;11.70;99.90
21508;DHT22;10915;54.352;9.074;2023-01-01T05:33:49;11.70;99.90
21508;DHT22;10915;54.352;9.074;2023-01-01T05:36:18;11.60;99.90
21508;DHT22;10915;54.352;9.074;2023-01-01T05:38:44;11.60;99.90
21508;DHT22;10915;54.352;9.074;2023-01-01T05:41:12;11.70;99.90
21508;DHT22;10915;54.352;9.074;2023-01-01T05:43:38;11.70;99.90
21508;DHT22;10915;54.352;9.074;2023-01-01T05:46:12;11.70;99.90
21508;DHT22;10915;54.352;9.074;2023-01-01T05:48:38;11.70;99.90
21508;DHT22;10915;54.352;9.074;2023-01-01T06:38:53;11.60;99.90
21508;DHT22;10915;54.352;9.074;2023-01-01T06:41:55;11.60;99.90
21508;DHT22;10915;54.352;9.074;2023-01-01T06:44:37;11.60;99.90
21508;DHT22;10915;54.352;9.074;2023-01-01T06:47:19;11.50;99.90
21508;DHT22;10915;54.352;9.074;2023-01-01T06:50:25;11.50;99.90
21508;DHT22;10915;54.352;9.074;2023-01-01T06:53:08;11.50;99.90
21508;DHT22;10915;54.352;9.074;2023-01-01T06:55:35;11.40;99.90
21508;DHT22;10915;54.352;9.074;2023-01-01T06:58:41;11.40;99.90
21508;DHT22;10915;54.352;9.074;2023-01-01T07:01:16;11.40;99.90
21508;DHT22;10915;54.352;9.074;2023-01-01T07:04:06;11.40;99.90
21508;DHT22;10915;54.352;9.074;2023-01-01T07:06:44;11.30;99.90
21508;DHT22;10915;54.352;9.074;2023-01-01T07:09:09;11.30;99.90
21508;DHT22;10915;54.352;9.074;2023-01-01T07:11:44;11.30;99.90
21508;DHT22;10915;54.352;9.074;2023-01-01T07:14:25;11.30;99.90
21508;DHT22;10915;54.352;9.074;2023-01-01T07:16:51;11.30;99.90
21508;DHT22;10915;54.352;9.074;2023-01-01T07:19:23;11.30;99.90
21508;DHT22;10915;54.352;9.074;2023-01-01T07:22:00;11.30;99.90
21508;DHT22;10915;54.352;9.074;2023-01-01T07:24:41;11.30;99.90
21508;DHT22;10915;54.352;9.074;2023-01-01T07:27:22;11.30;99.90
21508;DHT22;10915;54.352;9.074;2023-01-01T07:30:16;11.30;99.90
21508;DHT22;10915;54.352;9.074;2023-01-01T07:32:43;11.30;99.90
21508;DHT22;10915;54.352;9.074;2023-01-01T07:35:16;11.20;99.90
21508;DHT22;10915;54.352;9.074;2023-01-01T07:37:42;11.20;99.90
21508;DHT22;10915;54.352;9.074;2023-01-01T07:40:40;11.20;99.90
21508;DHT22;10915;54.352;9.074;2023-01-01T07:43:10;11.20;99.90
21508;DHT22;10915;54.352;9.074;2023-01-01T07:45:44;11.20;99.90
21508;DHT22;10915;54.352;9.074;2023-01-01T07:48:16;11.20;99.90
21508;DHT22;10915;54.352;9.074;2023-01-01T07:50:51;11.20;99.90
21508;DHT22;10915;54.352;9.074;2023-01-01T07:53:23;11.20;99.90
21508;DHT22;10915;54.352;9.074;2023-01-01T07:55:57;11.20;99.90
21508;DHT22;10915;54.352;9.074;2023-01-01T08:01:59;11.20;99.90
21508;DHT22;10915;54.352;9.074;2023-01-01T08:04:42;11.20;99.90
21508;DHT22;10915;54.352;9.074;2023-01-01T08:07:08;11.20;99.90
21508;DHT22;10915;54.352;9.074;2023-01-01T08:09:40;11.20;99.90
21508;DHT22;10915;54.352;9.074;2023-01-01T08:12:38;11.20;99.90
21508;DHT22;10915;54.352;9.074;2023-01-01T08:15:08;11.10;99.90
21508;DHT22;10915;54.352;9.074;2023-01-01T08:17:38;11.10;99.90
21508;DHT22;10915;54.352;9.074;2023-01-01T08:20:05;11.00;99.90
21508;DHT22;10915;54.352;9.074;2023-01-01T08:22:47;11.00;99.90
21508;DHT22;10915;54.352;9.074;2023-01-01T08:25:23;11.00;99.90
21508;DHT22;10915;54.352;9.074;2023-01-01T08:27:52;10.90;99.90
21508;DHT22;10915;54.352;9.074;2023-01-01T08:30:18;10.90;99.90
21508;DHT22;10915;54.352;9.074;2023-01-01T08:33:04;10.90;99.90
21508;DHT22;10915;54.352;9.074;2023-01-01T08:36:02;10.90;99.90
21508;DHT22;10915;54.352;9.074;2023-01-01T08:38:43;10.90;99.90
21508;DHT22;10915;54.352;9.074;2023-01-01T08:44:23;10.90;99.90
21508;DHT22;10915;54.352;9.074;2023-01-01T08:46:57;10.80;99.90
21508;DHT22;10915;54.352;9.074;2023-01-01T08:49:23;10.90;99.90
21508;DHT22;10915;54.352;9.074;2023-01-01T08:51:54;10.90;99.90
21508;DHT22;10915;54.352;9.074;2023-01-01T08:54:23;10.80;99.90
21508;DHT22;10915;54.352;9.074;2023-01-01T08:56:52;10.80;99.90
21508;DHT22;10915;54.352;9.074;2023-01-01T08:59:21;10.80;99.90
21508;DHT22;10915;54.352;9.074;2023-01-01T09:01:55;10.80;99.90
21508;DHT22;10915;54.352;9.074;2023-01-01T09:04:24;10.80;99.90
21508;DHT22;10915;54.352;9.074;2023-01-01T09:06:50;10.80;99.90
21508;DHT22;10915;54.352;9.074;2023-01-01T09:09:16;10.80;99.90
21508;DHT22;10915;54.352;9.074;2023-01-01T09:11:53;10.80;99.90
21508;DHT22;10915;54.352;9.074;2023-01-01T09:14:22;10.80;99.90
21508;DHT22;10915;54.352;9.074;2023-01-01T09:16:48;10.80;99.90
21508;DHT22;10915;54.352;9.074;2023-01-01T09:19:17;10.80;99.90
21508;DHT22;10915;54.352;9.074;2023-01-01T09:21:43;10.80;99.90
21508;DHT22;10915;54.352;9.074;2023-01-01T09:24:12;10.80;99.90
21508;DHT22;10915;54.352;9.074;2023-01-01T09:26:37;10.80;99.90
21508;DHT22;10915;54.352;9.074;2023-01-01T09:29:03;10.70;99.90
21508;DHT22;10915;54.352;9.074;2023-01-01T09:31:35;10.70;99.90
21508;DHT22;10915;54.352;9.074;2023-01-01T09:34:23;10.70;99.90
21508;DHT22;10915;54.352;9.074;2023-01-01T09:39:28;10.70;99.90
21508;DHT22;10915;54.352;9.074;2023-01-01T09:47:45;10.70;99.90
21508;DHT22;10915;54.352;9.074;2023-01-01T09:50:20;10.70;99.90
21508;DHT22;10915;54.352;9.074;2023-01-01T09:52:54;10.70;99.90
21508;DHT22;10915;54.352;9.074;2023-01-01T09:55:41;10.60;99.90
21508;DHT22;10915;54.352;9.074;2023-01-01T09:58:10;10.60;99.90
21508;DHT22;10915;54.352;9.074;2023-01-01T10:00:40;10.50;99.90
21508;DHT22;10915;54.352;9.074;2023-01-01T10:06:21;10.40;99.90
21508;DHT22;10915;54.352;9.074;2023-01-01T10:08:54;10.40;99.90
21508;DHT22;10915;54.352;9.074;2023-01-01T10:16:51;10.40;99.90
21508;DHT22;10915;54.352;9.074;2023-01-01T10:19:46;10.40;99.90
21508;DHT22;10915;54.352;9.074;2023-01-01T10:25:00;10.50;99.90
21508;DHT22;10915;54.352;9.074;2023-01-01T10:27:34;10.50;99.90
21508;DHT22;10915;54.352;9.074;2023-01-01T10:30:03;10.50;99.90
21508;DHT22;10915;54.352;9.074;2023-01-01T10:32:34;10.50;99.90
21508;DHT22;10915;54.352;9.074;2023-01-01T10:35:04;10.50;99.90
21508;DHT22;10915;54.352;9.074;2023-01-01T10:37:37;10.50;99.90
21508;DHT22;10915;54.352;9.074;2023-01-01T10:40:12;10.50;99.90
21508;DHT22;10915;54.352;9.074;2023-01-01T10:42:38;10.50;99.90
21508;DHT22;10915;54.352;9.074;2023-01-01T10:45:04;10.50;99.90
21508;DHT22;10915;54.352;9.074;2023-01-01T10:47:30;10.50;99.90
21508;DHT22;10915;54.352;9.074;2023-01-01T10:50:01;10.50;99.90
21508;DHT22;10915;54.352;9.074;2023-01-01T10:52:35;10.50;99.90
21508;DHT22;10915;54.352;9.074;2023-01-01T10:55:01;10.50;99.90
21508;DHT22;10915;54.352;9.074;2023-01-01T10:59:53;10.50;99.90
21508;DHT22;10915;54.352;9.074;2023-01-01T11:02:24;10.50;99.90
21508;DHT22;10915;54.352;9.074;2023-01-01T11:04:52;10.60;99.90
21508;DHT22;10915;54.352;9.074;2023-01-01T11:07:27;10.60;99.90
21508;DHT22;10915;54.352;9.074;2023-01-01T11:09:58;10.60;99.90
21508;DHT22;10915;54.352;9.074;2023-01-01T11:12:29;10.60;99.90
21508;DHT22;10915;54.352;9.074;2023-01-01T11:14:56;10.60;99.90
21508;DHT22;10915;54.352;9.074;2023-01-01T11:17:25;10.70;99.90
21508;DHT22;10915;54.352;9.074;2023-01-01T11:19:52;10.70;99.90
21508;DHT22;10915;54.352;9.074;2023-01-01T11:22:48;10.70;99.90
21508;DHT22;10915;54.352;9.074;2023-01-01T11:27:48;10.70;99.90
21508;DHT22;10915;54.352;9.074;2023-01-01T11:32:55;10.70;99.90
21508;DHT22;10915;54.352;9.074;2023-01-01T11:35:24;10.70;99.90
21508;DHT22;10915;54.352;9.074;2023-01-01T11:37:52;10.70;99.90
21508;DHT22;10915;54.352;9.074;2023-01-01T11:41:06;10.70;99.90
21508;DHT22;10915;54.352;9.074;2023-01-01T11:43:06;10.70;99.90
21508;DHT22;10915;54.352;9.074;2023-01-01T11:45:40;10.60;99.90
21508;DHT22;10915;54.352;9.074;2023-01-01T11:48:17;10.60;99.90
21508;DHT22;10915;54.352;9.074;2023-01-01T11:50:59;10.60;99.90
21508;DHT22;10915;54.352;9.074;2023-01-01T11:53:37;10.60;99.90
21508;DHT22;10915;54.352;9.074;2023-01-01T11:56:16;10.60;99.90
21508;DHT22;10915;54.352;9.074;2023-01-01T11:58:47;10.70;99.90
21508;DHT22;10915;54.352;9.074;2023-01-01T12:03:54;10.70;99.90
21508;DHT22;10915;54.352;9.074;2023-01-01T12:06:40;10.70;99.90
21508;DHT22;10915;54.352;9.074;2023-01-01T12:09:24;10.80;99.90
21508;DHT22;10915;54.352;9.074;2023-01-01T12:12:04;10.80;99.90
21508;DHT22;10915;54.352;9.074;2023-01-01T12:14:45;10.80;99.90
21508;DHT22;10915;54.352;9.074;2023-01-01T12:17:36;10.80;99.90
21508;DHT22;10915;54.352;9.074;2023-01-01T12:20:22;10.80;99.90
21508;DHT22;10915;54.352;9.074;2023-01-01T12:22:50;10.90;99.90
21508;DHT22;10915;54.352;9.074;2023-01-01T12:25:18;10.90;99.90
21508;DHT22;10915;54.352;9.074;2023-01-01T12:30:48;10.90;99.90
21508;DHT22;10915;54.352;9.074;2023-01-01T12:36:08;11.00;99.90
21508;DHT22;10915;54.352;9.074;2023-01-01T12:44:06;11.00;99.90
21508;DHT22;10915;54.352;9.074;2023-01-01T12:47:03;10.90;99.90
21508;DHT22;10915;54.352;9.074;2023-01-01T12:50:38;10.90;99.90
21508;DHT22;10915;54.352;9.074;2023-01-01T13:00:53;10.80;99.90
21508;DHT22;10915;54.352;9.074;2023-01-01T13:06:17;10.80;99.90
21508;DHT22;10915;54.352;9.074;2023-01-01T13:08:48;10.70;99.90
21508;DHT22;10915;54.352;9.074;2023-01-01T13:11:17;10.70;99.90
21508;DHT22;10915;54.352;9.074;2023-01-01T13:13:47;10.70;99.90
21508;DHT22;10915;54.352;9.074;2023-01-01T13:16:31;10.60;99.90
21508;DHT22;10915;54.352;9.074;2023-01-01T13:18:57;10.60;99.90
21508;DHT22;10915;54.352;9.074;2023-01-01T13:21:25;10.70;99.90
21508;DHT22;10915;54.352;9.074;2023-01-01T13:24:21;10.70;99.90
21508;DHT22;10915;54.352;9.074;2023-01-01T13:26:50;10.70;99.90
21508;DHT22;10915;54.352;9.074;2023-01-01T13:34:58;10.80;99.90
21508;DHT22;10915;54.352;9.074;2023-01-01T13:37:39;10.80;99.90
21508;DHT22;10915;54.352;9.074;2023-01-01T13:45:26;10.80;99.90
21508;DHT22;10915;54.352;9.074;2023-01-01T13:55:56;10.70;99.90
21508;DHT22;10915;54.352;9.074;2023-01-01T14:03:57;10.70;99.90
21508;DHT22;10915;54.352;9.074;2023-01-01T14:06:35;10.60;99.90
21508;DHT22;10915;54.352;9.074;2023-01-01T14:09:08;10.60;99.90
21508;DHT22;10915;54.352;9.074;2023-01-01T14:11:35;10.60;99.90
21508;DHT22;10915;54.352;9.074;2023-01-01T14:14:01;10.60;99.90
21508;DHT22;10915;54.352;9.074;2023-01-01T14:16:27;10.50;99.90
21508;DHT22;10915;54.352;9.074;2023-01-01T14:18:58;10.50;99.90
21508;DHT22;10915;54.352;9.074;2023-01-01T14:21:30;10.50;99.90
21508;DHT22;10915;54.352;9.074;2023-01-01T14:23:59;10.50;99.90
21508;DHT22;10915;54.352;9.074;2023-01-01T14:26:27;10.50;99.90
21508;DHT22;10915;54.352;9.074;2023-01-01T14:29:04;10.40;99.90
21508;DHT22;10915;54.352;9.074;2023-01-01T14:31:34;10.40;99.90
21508;DHT22;10915;54.352;9.074;2023-01-01T14:34:18;10.40;99.90
21508;DHT22;10915;54.352;9.074;2023-01-01T14:36:51;10.30;99.90
21508;DHT22;10915;54.352;9.074;2023-01-01T14:39:29;10.30;99.90
21508;DHT22;10915;54.352;9.074;2023-01-01T14:41:59;10.30;99.90
21508;DHT22;10915;54.352;9.074;2023-01-01T14:44:37;10.30;99.90
21508;DHT22;10915;54.352;9.074;2023-01-01T14:47:04;10.30;99.90
21508;DHT22;10915;54.352;9.074;2023-01-01T14:49:36;10.20;99.90
21508;DHT22;10915;54.352;9.074;2023-01-01T14:52:17;10.20;99.90
21508;DHT22;10915;54.352;9.074;2023-01-01T14:54:46;10.20;99.90
21508;DHT22;10915;54.352;9.074;2023-01-01T14:57:25;10.10;99.90
21508;DHT22;10915;54.352;9.074;2023-01-01T14:59:51;10.20;99.90
21508;DHT22;10915;54.352;9.074;2023-01-01T15:02:26;10.10;99.90
21508;DHT22;10915;54.352;9.074;2023-01-01T15:04:53;10.10;99.90
21508;DHT22;10915;54.352;9.074;2023-01-01T15:07:27;10.10;99.90
21508;DHT22;10915;54.352;9.074;2023-01-01T15:09:55;10.10;99.90
21508;DHT22;10915;54.352;9.074;2023-01-01T15:12:22;10.10;99.90
21508;DHT22;10915;54.352;9.074;2023-01-01T15:14:50;10.10;99.90
21508;DHT22;10915;54.352;9.074;2023-01-01T15:17:21;10.10;99.90
21508;DHT22;10915;54.352;9.074;2023-01-01T15:20:20;10.00;99.90
21508;DHT22;10915;54.352;9.074;2023-01-01T15:22:47;10.10;99.90
21508;DHT22;10915;54.352;9.074;2023-01-01T15:25:14;10.10;99.90
21508;DHT22;10915;54.352;9.074;2023-01-01T15:27:41;10.10;99.90
21508;DHT22;10915;54.352;9.074;2023-01-01T15:30:31;10.10;99.90
21508;DHT22;10915;54.352;9.074;2023-01-01T15:33:12;10.10;99.90
21508;DHT22;10915;54.352;9.074;2023-01-01T15:35:39;10.20;99.90
21508;DHT22;10915;54.352;9.074;2023-01-01T15:40:36;10.20;99.90
21508;DHT22;10915;54.352;9.074;2023-01-01T15:43:17;10.20;99.90
21508;DHT22;10915;54.352;9.074;2023-01-01T15:45:58;10.20;99.90
21508;DHT22;10915;54.352;9.074;2023-01-01T15:48:33;10.30;99.90
21508;DHT22;10915;54.352;9.074;2023-01-01T15:51:20;10.30;99.90
21508;DHT22;10915;54.352;9.074;2023-01-01T15:53:58;10.30;99.90
21508;DHT22;10915;54.352;9.074;2023-01-01T15:56:30;10.30;99.90
21508;DHT22;10915;54.352;9.074;2023-01-01T15:59:03;10.30;99.90
21508;DHT22;10915;54.352;9.074;2023-01-01T16:01:31;10.20;99.90
21508;DHT22;10915;54.352;9.074;2023-01-01T16:04:24;10.20;99.90
21508;DHT22;10915;54.352;9.074;2023-01-01T16:06:52;10.20;99.90
21508;DHT22;10915;54.352;9.074;2023-01-01T16:09:19;10.20;99.90
21508;DHT22;10915;54.352;9.074;2023-01-01T16:11:49;10.20;99.90
21508;DHT22;10915;54.352;9.074;2023-01-01T16:14:15;10.20;99.90
21508;DHT22;10915;54.352;9.074;2023-01-01T16:16:44;10.20;99.90
21508;DHT22;10915;54.352;9.074;2023-01-01T16:19:16;10.20;99.90
21508;DHT22;10915;54.352;9.074;2023-01-01T16:21:42;10.30;99.90
21508;DHT22;10915;54.352;9.074;2023-01-01T16:24:15;10.30;99.90
21508;DHT22;10915;54.352;9.074;2023-01-01T16:26:42;10.30;99.90
21508;DHT22;10915;54.352;9.074;2023-01-01T16:29:13;10.20;99.90
21508;DHT22;10915;54.352;9.074;2023-01-01T16:31:39;10.20;99.90
21508;DHT22;10915;54.352;9.074;2023-01-01T16:34:05;10.20;99.90
21508;DHT22;10915;54.352;9.074;2023-01-01T16:36:32;10.20;99.90
21508;DHT22;10915;54.352;9.074;2023-01-01T16:38:57;10.20;99.90
21508;DHT22;10915;54.352;9.074;2023-01-01T16:41:25;10.20;99.90
21508;DHT22;10915;54.352;9.074;2023-01-01T16:43:54;10.20;99.90
21508;DHT22;10915;54.352;9.074;2023-01-01T16:46:20;10.20;99.90
21508;DHT22;10915;54.352;9.074;2023-01-01T16:48:45;10.20;99.90
21508;DHT22;10915;54.352;9.074;2023-01-01T16:51:19;10.20;99.90
21508;DHT22;10915;54.352;9.074;2023-01-01T16:53:46;10.20;99.90
21508;DHT22;10915;54.352;9.074;2023-01-01T16:56:13;10.20;99.90
21508;DHT22;10915;54.352;9.074;2023-01-01T16:58:42;10.20;99.90
21508;DHT22;10915;54.352;9.074;2023-01-01T17:01:11;10.20;99.90
21508;DHT22;10915;54.352;9.074;2023-01-01T17:03:36;10.20;99.90
21508;DHT22;10915;54.352;9.074;2023-01-01T17:06:07;10.20;99.90
21508;DHT22;10915;54.352;9.074;2023-01-01T17:08:37;10.20;99.90
21508;DHT22;10915;54.352;9.074;2023-01-01T17:11:05;10.20;99.90
21508;DHT22;10915;54.352;9.074;2023-01-01T17:13:35;10.20;99.90
21508;DHT22;10915;54.352;9.074;2023-01-01T17:16:04;10.20;99.90
21508;DHT22;10915;54.352;9.074;2023-01-01T17:18:33;10.20;99.90
21508;DHT22;10915;54.352;9.074;2023-01-01T17:21:07;10.20;99.90
21508;DHT22;10915;54.352;9.074;2023-01-01T17:23:34;10.20;99.90
21508;DHT22;10915;54.352;9.074;2023-01-01T17:26:08;10.20;99.90
21508;DHT22;10915;54.352;9.074;2023-01-01T17:28:38;10.20;99.90
21508;DHT22;10915;54.352;9.074;2023-01-01T17:31:09;10.20;99.90
21508;DHT22;10915;54.352;9.074;2023-01-01T17:33:38;10.20;99.90
21508;DHT22;10915;54.352;9.074;2023-01-01T17:36:10;10.20;99.90
21508;DHT22;10915;54.352;9.074;2023-01-01T17:38:36;10.20;99.90
21508;DHT22;10915;54.352;9.074;2023-01-01T17:41:04;10.20;99.90
21508;DHT22;10915;54.352;9.074;2023-01-01T17:43:35;10.20;99.90
21508;DHT22;10915;54.352;9.074;2023-01-01T17:46:04;10.20;99.90
21508;DHT22;10915;54.352;9.074;2023-01-01T17:48:36;10.20;99.90
21508;DHT22;10915;54.352;9.074;2023-01-01T17:51:07;10.20;99.90
21508;DHT22;10915;54.352;9.074;2023-01-01T17:53:42;10.20;99.90
21508;DHT22;10915;54.352;9.074;2023-01-01T17:56:14;10.20;99.90
21508;DHT22;10915;54.352;9.074;2023-01-01T17:58:41;10.20;99.90
21508;DHT22;10915;54.352;9.074;2023-01-01T18:01:26;10.20;99.90
21508;DHT22;10915;54.352;9.074;2023-01-01T18:03:54;10.20;99.90
21508;DHT22;10915;54.352;9.074;2023-01-01T18:06:21;10.20;99.90
21508;DHT22;10915;54.352;9.074;2023-01-01T18:11:14;10.10;99.90
21508;DHT22;10915;54.352;9.074;2023-01-01T18:13:40;10.10;99.90
21508;DHT22;10915;54.352;9.074;2023-01-01T18:16:07;10.10;99.90
21508;DHT22;10915;54.352;9.074;2023-01-01T18:18:38;10.10;99.90
21508;DHT22;10915;54.352;9.074;2023-01-01T18:21:08;10.00;99.90
21508;DHT22;10915;54.352;9.074;2023-01-01T18:23:36;10.10;99.90
21508;DHT22;10915;54.352;9.074;2023-01-01T18:26:03;10.10;99.90
21508;DHT22;10915;54.352;9.074;2023-01-01T18:28:29;10.00;99.90
21508;DHT22;10915;54.352;9.074;2023-01-01T18:31:09;10.00;99.90
21508;DHT22;10915;54.352;9.074;2023-01-01T18:33:35;10.00;99.90
21508;DHT22;10915;54.352;9.074;2023-01-01T18:36:09;10.00;99.90
21508;DHT22;10915;54.352;9.074;2023-01-01T18:38:37;10.00;99.90
21508;DHT22;10915;54.352;9.074;2023-01-01T18:43:56;10.00;99.90
21508;DHT22;10915;54.352;9.074;2023-01-01T18:46:23;10.00;99.90